Time;durP1;ratioP1;P1;durP2;ratioP2;P2;SDS_P1;SDS_P2;PMS_P1;PMS_P2;Temp;Humidity;BMP_temperature;BMP_pressure;BME280_temperature;BME280_humidity;BME280_pressure;Samples;Min_cycle;Max_cycle;Signal;HPM_P1;HPM_P2
2021/09/17 00:05:10;;;;;;;14.88;8.40;;;14.70;99.90;;;;;;12508284;28;20057;-38
2021/09/17 00:11:12;;;;;;;12.15;8.35;;;14.60;99.90;;;;;;12511390;28;20478;-38
2021/09/17 00:17:14;;;;;;;11.25;8.23;;;14.60;99.90;;;;;;12512400;28;20091;-37
2021/09/17 00:23:16;;;;;;;13.25;9.07;;;14.60;99.90;;;;;;12510856;28;20075;-43
2021/09/17 00:29:18;;;;;;;12.75;8.93;;;14.60;99.90;;;;;;12519533;28;20643;-43
2021/09/17 00:35:20;;;;;;;12.65;9.50;;;14.60;99.90;;;;;;12521214;28;20051;-43
2021/09/17 00:41:22;;;;;;;12.68;10.02;;;14.50;99.90;;;;;;12520805;28;20078;-38
2021/09/17 00:47:24;;;;;;;16.95;10.35;;;14.50;99.90;;;;;;12521009;28;20061;-45
2021/09/17 00:53:25;;;;;;;14.57;10.27;;;14.50;99.90;;;;;;12519221;28;20121;-38
2021/09/17 00:59:28;;;;;;;14.52;10.52;;;14.40;99.90;;;;;;12518386;28;20053;-45
2021/09/17 01:05:30;;;;;;;17.40;10.50;;;14.30;99.90;;;;;;12520996;28;20056;-39
2021/09/17 01:11:32;;;;;;;13.90;11.38;;;13.90;99.90;;;;;;12521077;28;20139;-37
2021/09/17 01:17:38;;;;;;;14.57;11.27;;;14.10;99.90;;;;;;12520164;28;20163;-38
2021/09/17 01:23:40;;;;;;;15.63;11.70;;;14.20;99.90;;;;;;12517407;28;20041;-46
2021/09/17 01:29:42;;;;;;;18.08;12.75;;;14.20;99.90;;;;;;12519908;28;20476;-43
2021/09/17 01:35:44;;;;;;;16.52;12.38;;;14.10;99.90;;;;;;12519097;28;20098;-37
2021/09/17 01:41:47;;;;;;;17.30;13.57;;;14.20;99.90;;;;;;12518667;28;20040;-43
2021/09/17 01:47:49;;;;;;;18.00;13.23;;;14.20;99.90;;;;;;12519952;28;20143;-38
2021/09/17 01:53:51;;;;;;;17.90;13.73;;;14.00;99.90;;;;;;12520329;28;20095;-38
2021/09/17 01:59:53;;;;;;;17.30;13.65;;;14.00;99.90;;;;;;12516413;28;20547;-44
2021/09/17 02:05:55;;;;;;;19.98;14.40;;;14.10;99.90;;;;;;12517100;28;20045;-43
2021/09/17 02:11:57;;;;;;;21.65;14.13;;;13.80;99.90;;;;;;12519608;28;20049;-37
2021/09/17 02:17:59;;;;;;;21.20;13.90;;;13.70;99.90;;;;;;12517589;28;20053;-44
2021/09/17 02:24:01;;;;;;;22.27;14.90;;;13.60;99.90;;;;;;12516578;28;20061;-44
2021/09/17 02:30:04;;;;;;;21.38;16.25;;;13.50;99.90;;;;;;12516012;28;20135;-45
2021/09/17 02:36:07;;;;;;;24.42;16.60;;;13.50;99.90;;;;;;12503932;28;20052;-38
2021/09/17 02:42:09;;;;;;;21.92;16.85;;;13.50;99.90;;;;;;12515762;28;20044;-44
2021/09/17 02:48:11;;;;;;;24.15;16.23;;;13.50;99.90;;;;;;12517179;28;20057;-38
2021/09/17 02:54:13;;;;;;;21.65;16.52;;;13.50;99.90;;;;;;12513184;28;20053;-44
2021/09/17 03:00:16;;;;;;;26.20;17.10;;;13.60;99.90;;;;;;12514924;28;20053;-45
2021/09/17 03:06:18;;;;;;;23.47;15.73;;;13.60;99.90;;;;;;12517972;28;20145;-43
2021/09/17 03:12:20;;;;;;;26.77;17.38;;;13.50;99.90;;;;;;12515225;28;20143;-37
2021/09/17 03:18:22;;;;;;;22.27;17.30;;;13.50;99.90;;;;;;12517057;28;20053;-45
2021/09/17 03:24:24;;;;;;;22.58;17.23;;;13.80;99.90;;;;;;12511146;28;20671;-43
2021/09/17 03:30:25;;;;;;;29.95;18.85;;;13.80;99.90;;;;;;12511938;28;20105;-38
2021/09/17 03:36:28;;;;;;;25.38;18.48;;;13.80;99.90;;;;;;12516023;28;20680;-42
2021/09/17 03:42:30;;;;;;;25.15;18.02;;;13.70;99.90;;;;;;12513716;28;20498;-37
2021/09/17 03:48:32;;;;;;;24.92;18.23;;;13.60;99.90;;;;;;12480898;23;20057;-86
2021/09/17 03:54:34;;;;;;;29.27;19.55;;;13.70;99.90;;;;;;12390406;28;20050;-86
2021/09/17 04:00:36;;;;;;;28.63;18.77;;;13.60;99.90;;;;;;12368228;28;20642;-85
2021/09/17 04:06:38;;;;;;;25.05;18.45;;;13.90;99.90;;;;;;12403389;28;20459;-85
2021/09/17 04:12:40;;;;;;;29.50;18.88;;;13.90;99.90;;;;;;12399165;28;20128;-87
2021/09/17 04:18:42;;;;;;;24.83;17.83;;;13.60;99.90;;;;;;12391216;28;20050;-87
2021/09/17 04:24:44;;;;;;;28.30;19.55;;;13.70;99.90;;;;;;12392286;28;21908;-87
2021/09/17 04:30:46;;;;;;;23.95;19.00;;;13.60;99.90;;;;;;12394603;28;20095;-86
2021/09/17 04:36:47;;;;;;;27.75;18.70;;;13.50;99.90;;;;;;12385032;28;20156;-88
2021/09/17 04:42:50;;;;;;;22.60;16.90;;;13.40;99.90;;;;;;12401459;28;20070;-87
2021/09/17 04:48:52;;;;;;;26.48;17.70;;;13.80;99.90;;;;;;12385341;28;20141;-87
2021/09/17 04:54:54;;;;;;;26.85;18.27;;;13.70;99.90;;;;;;12369653;28;20046;-86
2021/09/17 05:00:56;;;;;;;25.38;17.05;;;13.50;99.90;;;;;;12377174;28;20679;-87
2021/09/17 05:06:58;;;;;;;26.85;18.65;;;13.50;99.90;;;;;;12356562;28;20061;-88
2021/09/17 05:13:02;;;;;;;27.02;19.15;;;13.40;99.90;;;;;;12383423;28;20109;-87
2021/09/17 05:19:04;;;;;;;25.10;17.73;;;13.50;99.90;;;;;;12389333;28;20058;-88
2021/09/17 05:25:07;;;;;;;28.75;19.02;;;13.50;99.90;;;;;;12382586;28;20050;-88
2021/09/17 05:31:09;;;;;;;28.27;18.35;;;13.50;99.90;;;;;;12390000;28;20046;-88
2021/09/17 05:37:10;;;;;;;26.40;19.52;;;13.60;99.90;;;;;;12382778;28;20097;-88
2021/09/17 05:43:12;;;;;;;26.63;19.15;;;13.60;99.90;;;;;;12382952;28;20116;-86
2021/09/17 05:49:14;;;;;;;27.75;19.95;;;13.70;99.90;;;;;;12390707;28;20403;-88
2021/09/17 05:55:16;;;;;;;26.75;19.63;;;13.90;99.90;;;;;;12367393;28;20100;-86
2021/09/17 06:01:18;;;;;;;27.85;18.63;;;13.80;99.90;;;;;;12382554;28;20042;-84
2021/09/17 06:07:20;;;;;;;28.65;18.30;;;13.80;99.90;;;;;;12378146;28;20058;-87
2021/09/17 06:13:21;;;;;;;27.00;18.25;;;13.80;99.90;;;;;;12364942;28;20111;-86
2021/09/17 06:19:23;;;;;;;27.08;18.48;;;14.20;99.90;;;;;;12370041;28;20169;-86
2021/09/17 06:25:25;;;;;;;27.92;19.08;;;14.40;99.90;;;;;;12385830;28;20115;-88
2021/09/17 06:31:27;;;;;;;29.40;17.70;;;14.50;99.90;;;;;;12356995;28;21000;-86
2021/09/17 06:37:29;;;;;;;25.85;18.55;;;14.50;99.90;;;;;;12367761;28;20076;-86
2021/09/17 06:43:31;;;;;;;26.92;17.02;;;14.40;99.90;;;;;;12380494;28;20112;-88
2021/09/17 06:49:36;;;;;;;28.45;18.17;;;14.60;99.90;;;;;;12336118;28;20113;-88
2021/09/17 06:55:38;;;;;;;25.80;17.35;;;14.60;99.90;;;;;;12371689;28;20096;-87
2021/09/17 07:01:39;;;;;;;25.20;17.42;;;14.50;99.90;;;;;;12374018;28;20041;-86
2021/09/17 07:07:42;;;;;;;26.02;17.85;;;14.40;99.90;;;;;;12366859;28;20046;-89
2021/09/17 07:13:44;;;;;;;28.65;16.52;;;14.70;99.90;;;;;;12360134;28;20573;-89
2021/09/17 07:19:46;;;;;;;27.08;18.15;;;14.80;99.90;;;;;;12378279;28;20113;-88
2021/09/17 07:25:48;;;;;;;26.02;17.48;;;14.90;99.90;;;;;;12380452;28;20429;-88
2021/09/17 07:31:49;;;;;;;27.90;18.10;;;15.00;99.90;;;;;;12381377;28;20100;-86
2021/09/17 07:37:51;;;;;;;26.02;18.20;;;15.10;99.90;;;;;;12355699;28;20058;-87
2021/09/17 07:43:53;;;;;;;27.95;17.88;;;15.10;99.90;;;;;;12368324;28;20388;-86
2021/09/17 07:49:55;;;;;;;24.73;17.45;;;15.20;99.90;;;;;;12371399;28;20714;-88
2021/09/17 07:55:57;;;;;;;27.40;16.95;;;15.20;99.90;;;;;;12369316;28;20630;-87
2021/09/17 08:01:59;;;;;;;24.70;16.00;;;15.20;99.90;;;;;;12377687;28;20184;-88
2021/09/17 08:08:01;;;;;;;29.20;19.40;;;15.30;99.90;;;;;;12372823;28;20061;-88
2021/09/17 08:14:03;;;;;;;30.08;16.65;;;15.30;99.90;;;;;;12398021;28;20084;-87
2021/09/17 08:20:06;;;;;;;23.10;15.73;;;15.50;99.90;;;;;;12389047;28;20077;-88
2021/09/17 08:26:08;;;;;;;23.33;15.77;;;15.60;99.90;;;;;;12376745;28;20049;-86
2021/09/17 08:32:10;;;;;;;21.55;14.70;;;15.60;99.90;;;;;;12386251;28;20106;-87
2021/09/17 08:38:12;;;;;;;21.95;14.63;;;15.60;99.90;;;;;;12369006;28;20795;-86
2021/09/17 08:44:14;;;;;;;18.77;11.75;;;15.80;99.90;;;;;;12366212;28;20042;-86
2021/09/17 08:50:18;;;;;;;17.70;10.45;;;15.90;99.90;;;;;;12340755;28;20209;-87
2021/09/17 08:56:20;;;;;;;17.27;11.50;;;16.20;99.90;;;;;;12376692;28;20054;-86
2021/09/17 09:02:23;;;;;;;13.65;8.30;;;16.20;99.90;;;;;;12366313;28;20049;-86
2021/09/17 09:08:25;;;;;;;15.73;8.33;;;16.40;99.90;;;;;;12373934;28;20058;-87
2021/09/17 09:14:27;;;;;;;11.57;8.05;;;16.50;99.90;;;;;;12361717;28;20042;-88
2021/09/17 09:20:34;;;;;;;14.65;6.45;;;16.80;99.90;;;;;;12357671;28;20133;-88
2021/09/17 09:26:37;;;;;;;8.73;6.10;;;17.00;99.90;;;;;;12357183;28;20137;-88
2021/09/17 09:32:39;;;;;;;11.23;5.93;;;17.10;99.90;;;;;;12371672;28;20076;-87
2021/09/17 09:38:49;;;;;;;10.68;4.28;;;16.90;99.90;;;;;;12357483;28;20579;-86
2021/09/17 09:45:11;;;;;;;9.05;4.75;;;16.70;99.90;;;;;;12383003;28;20122;-87
2021/09/17 09:51:14;;;;;;;5.93;3.90;;;16.40;99.90;;;;;;12363330;28;20038;-86
2021/09/17 09:57:16;;;;;;;13.40;8.43;;;16.40;99.90;;;;;;12373500;28;20050;-88
2021/09/17 10:03:18;;;;;;;15.05;9.23;;;16.60;99.90;;;;;;12360381;28;20138;-86
2021/09/17 10:09:21;;;;;;;7.75;5.03;;;16.80;99.90;;;;;;12377604;28;20061;-86
2021/09/17 10:15:25;;;;;;;9.98;6.13;;;17.30;99.90;;;;;;12368230;28;20042;-87
2021/09/17 10:22:00;;;;;;;12.25;6.47;;;17.60;99.90;;;;;;12380080;28;20057;-87
2021/09/17 10:28:14;;;;;;;10.35;5.20;;;17.80;99.90;;;;;;12360971;28;20089;-88
2021/09/17 10:34:29;;;;;;;;;;;17.70;99.90;;;;;;12384340;28;20049;-88
2021/09/17 10:41:02;;;;;;;10.23;5.40;;;17.50;99.90;;;;;;12367147;28;19933;-88
2021/09/17 10:47:04;;;;;;;11.18;7.55;;;17.30;99.90;;;;;;12381646;28;20074;-86
2021/09/17 10:53:06;;;;;;;13.00;8.18;;;17.10;99.90;;;;;;12395298;28;20120;-87
2021/09/17 10:59:15;;;;;;;9.70;6.53;;;16.90;99.90;;;;;;12369658;28;20132;-88
2021/09/17 11:05:17;;;;;;;11.57;6.25;;;17.10;99.90;;;;;;12374881;28;20569;-87
2021/09/17 11:11:26;;;;;;;7.38;5.18;;;17.50;99.90;;;;;;12378058;28;20085;-86
2021/09/17 11:17:35;;;;;;;7.85;5.25;;;17.90;99.90;;;;;;12380179;28;20103;-86
2021/09/17 11:23:37;;;;;;;7.00;5.10;;;18.00;99.90;;;;;;12377933;28;20391;-87
2021/09/17 11:29:39;;;;;;;8.60;5.53;;;18.10;99.90;;;;;;12381507;28;20142;-88
2021/09/17 11:35:41;;;;;;;9.18;5.55;;;18.00;99.90;;;;;;12380589;28;20041;-86
2021/09/17 11:41:44;;;;;;;9.05;6.38;;;18.00;99.90;;;;;;12376013;28;20081;-86
2021/09/17 11:47:50;;;;;;;11.70;5.93;;;17.90;99.90;;;;;;12381451;28;20120;-87
2021/09/17 11:53:51;;;;;;;8.55;5.20;;;17.70;99.90;;;;;;12344478;28;20103;-86
2021/09/17 11:59:53;;;;;;;8.30;5.10;;;17.60;99.90;;;;;;12374598;28;20475;-89
2021/09/17 12:05:55;;;;;;;9.75;5.15;;;17.70;99.90;;;;;;12355657;28;20105;-87
2021/09/17 12:11:57;;;;;;;9.80;5.82;;;17.60;99.90;;;;;;12362808;28;20054;-88
2021/09/17 12:18:02;;;;;;;9.68;5.72;;;17.30;99.90;;;;;;12371990;28;20220;-88
2021/09/17 12:24:39;;;;;;;7.05;5.10;;;17.20;99.90;;;;;;12319149;28;20093;-88
2021/09/17 12:30:41;;;;;;;10.77;5.75;;;17.10;99.90;;;;;;12288285;28;20034;-88
2021/09/17 12:36:49;;;;;;;7.57;5.30;;;17.00;99.90;;;;;;12435614;28;20102;-89
2021/09/17 12:43:03;;;;;;;9.57;5.50;;;17.00;99.90;;;;;;12420779;28;20042;-88
2021/09/17 12:49:04;;;;;;;9.43;5.15;;;17.10;99.90;;;;;;12446918;28;20060;-86
2021/09/17 12:55:40;;;;;;;7.13;5.55;;;17.20;99.90;;;;;;12443332;28;20099;-89
2021/09/17 13:01:44;;;;;;;9.40;5.32;;;17.40;99.90;;;;;;12437628;28;20091;-87
2021/09/17 13:07:46;;;;;;;7.55;4.93;;;17.60;99.90;;;;;;12434805;28;20545;-87
2021/09/17 13:13:48;;;;;;;8.93;5.13;;;17.80;99.90;;;;;;12441407;28;20053;-86
2021/09/17 13:19:50;;;;;;;10.10;4.80;;;18.00;99.90;;;;;;12432934;28;20056;-85
2021/09/17 13:25:51;;;;;;;6.85;4.90;;;18.00;99.90;;;;;;12438107;28;20050;-85
2021/09/17 13:31:54;;;;;;;6.68;4.93;;;17.70;99.90;;;;;;12437306;28;20073;-86
2021/09/17 13:37:57;;;;;;;7.75;4.50;;;17.80;99.90;;;;;;12434986;28;20088;-88
2021/09/17 13:44:00;;;;;;;9.00;4.23;;;17.60;99.90;;;;;;12407554;28;20162;-86
2021/09/17 13:50:02;;;;;;;7.55;5.05;;;17.50;99.90;;;;;;12432367;28;20057;-88
2021/09/17 13:56:04;;;;;;;11.35;5.97;;;17.40;99.90;;;;;;12420017;28;20129;-85
2021/09/17 14:02:07;;;;;;;12.43;6.13;;;17.50;99.90;;;;;;12441108;28;20423;-88
2021/09/17 14:08:09;;;;;;;6.20;4.15;;;17.90;99.90;;;;;;12409835;28;20092;-88
2021/09/17 14:14:10;;;;;;;7.25;4.95;;;18.10;99.90;;;;;;12435764;28;20056;-86
2021/09/17 14:20:12;;;;;;;10.20;5.30;;;18.20;99.90;;;;;;12431674;28;20585;-87
2021/09/17 14:26:14;;;;;;;7.00;4.78;;;18.10;99.90;;;;;;12435479;28;20049;-87
2021/09/17 14:32:16;;;;;;;9.02;4.80;;;18.10;99.90;;;;;;12431777;28;20050;-88
2021/09/17 14:38:18;;;;;;;7.15;4.65;;;18.40;99.90;;;;;;12411098;28;20050;-86
2021/09/17 14:44:20;;;;;;;6.93;4.65;;;18.50;99.90;;;;;;12418608;28;20515;-87
2021/09/17 14:50:22;;;;;;;6.47;4.97;;;18.70;99.90;;;;;;12428710;28;20215;-87
2021/09/17 14:56:24;;;;;;;7.30;4.90;;;18.60;99.90;;;;;;12428097;28;20132;-88
2021/09/17 15:02:26;;;;;;;8.93;4.72;;;18.60;99.90;;;;;;12425804;28;20042;-88
2021/09/17 15:08:29;;;;;;;9.80;5.05;;;18.60;99.90;;;;;;12431840;28;20470;-87
2021/09/17 15:14:30;;;;;;;7.60;5.07;;;18.50;99.90;;;;;;12428602;28;20128;-86
2021/09/17 15:20:32;;;;;;;7.32;4.95;;;18.80;99.90;;;;;;12431425;28;20584;-87
2021/09/17 15:26:37;;;;;;;6.60;4.50;;;19.00;99.90;;;;;;12430405;28;20414;-89
2021/09/17 15:32:39;;;;;;;9.93;4.90;;;18.90;99.90;;;;;;12412252;28;20064;-88
2021/09/17 15:38:40;;;;;;;5.88;4.70;;;18.70;99.90;;;;;;12427126;28;20091;-87
2021/09/17 15:44:42;;;;;;;7.78;3.80;;;18.50;99.90;;;;;;12418902;28;21006;-88
2021/09/17 15:50:46;;;;;;;6.00;3.45;;;18.30;99.90;;;;;;12420363;28;20176;-86
2021/09/17 15:56:48;;;;;;;6.35;3.95;;;18.20;99.90;;;;;;12431340;28;20049;-86
2021/09/17 16:02:50;;;;;;;6.78;4.20;;;18.20;99.90;;;;;;12424487;28;20069;-86
2021/09/17 16:08:52;;;;;;;8.15;4.40;;;18.40;99.90;;;;;;12433933;28;20054;-86
2021/09/17 16:14:56;;;;;;;7.28;3.78;;;18.40;99.90;;;;;;12423957;28;20545;-86
2021/09/17 16:20:59;;;;;;;7.95;4.30;;;18.10;99.90;;;;;;12424966;28;20489;-89
2021/09/17 16:27:02;;;;;;;8.00;4.43;;;17.90;99.90;;;;;;12428367;28;20073;-88
2021/09/17 16:33:05;;;;;;;5.93;4.28;;;17.70;99.90;;;;;;12420876;28;20051;-88
2021/09/17 16:39:07;;;;;;;8.02;4.60;;;17.70;99.90;;;;;;12439811;28;20050;-86
2021/09/17 16:45:11;;;;;;;6.65;3.95;;;17.60;99.90;;;;;;12436084;28;20204;-88
2021/09/17 16:51:13;;;;;;;5.50;4.23;;;17.50;99.90;;;;;;12372614;28;20053;-89
2021/09/17 16:57:17;;;;;;;6.00;3.83;;;17.40;99.90;;;;;;12394843;28;20305;-86
2021/09/17 17:03:19;;;;;;;7.50;3.92;;;17.30;99.90;;;;;;12372436;28;20150;-87
2021/09/17 17:09:21;;;;;;;5.05;3.75;;;17.30;99.90;;;;;;12396886;28;20201;-87
2021/09/17 17:15:24;;;;;;;5.13;2.83;;;17.10;99.90;;;;;;12400877;28;20566;-88
2021/09/17 17:21:27;;;;;;;6.15;3.30;;;17.10;99.90;;;;;;12382806;28;20051;-86
2021/09/17 17:27:29;;;;;;;5.13;3.22;;;17.00;99.90;;;;;;12386306;28;20050;-87
2021/09/17 17:33:31;;;;;;;6.78;3.33;;;16.90;99.90;;;;;;12387455;28;20053;-87
2021/09/17 17:39:34;;;;;;;5.32;3.05;;;16.90;99.90;;;;;;12385648;28;20046;-87
2021/09/17 17:45:36;;;;;;;5.20;2.85;;;16.80;99.90;;;;;;12385594;28;20046;-89
2021/09/17 17:51:38;;;;;;;4.22;2.95;;;16.70;99.90;;;;;;12428175;28;20532;-88
2021/09/17 17:57:40;;;;;;;5.53;3.50;;;16.70;99.90;;;;;;12434476;28;20045;-88
2021/09/17 18:03:42;;;;;;;5.38;3.50;;;16.70;99.90;;;;;;12443506;28;20042;-87
2021/09/17 18:09:44;;;;;;;7.28;3.88;;;16.60;99.90;;;;;;12431757;28;20050;-88
2021/09/17 18:15:47;;;;;;;6.20;4.10;;;16.70;99.90;;;;;;12396625;28;20053;-87
2021/09/17 18:21:49;;;;;;;6.63;4.03;;;16.40;99.90;;;;;;12431284;28;20057;-87
2021/09/17 18:27:51;;;;;;;6.60;3.63;;;16.30;99.90;;;;;;12423236;28;20058;-88
2021/09/17 18:33:53;;;;;;;5.70;3.88;;;16.40;99.90;;;;;;12436588;28;20038;-87
2021/09/17 18:39:54;;;;;;;6.45;3.15;;;16.40;99.90;;;;;;12433351;28;20460;-87
2021/09/17 18:45:57;;;;;;;7.88;3.55;;;16.30;99.90;;;;;;12428191;28;20107;-87
2021/09/17 18:51:59;;;;;;;6.70;3.20;;;16.40;99.90;;;;;;12433888;28;20053;-88
2021/09/17 18:58:01;;;;;;;7.75;3.75;;;16.30;99.90;;;;;;12430936;28;20050;-88
2021/09/17 19:04:02;;;;;;;8.30;5.47;;;16.30;99.90;;;;;;12427910;28;20164;-88
2021/09/17 19:10:05;;;;;;;11.40;4.50;;;16.20;99.90;;;;;;12432426;28;20489;-88
2021/09/17 19:16:07;;;;;;;5.53;3.78;;;16.10;99.90;;;;;;12436174;28;20881;-88
2021/09/17 19:22:10;;;;;;;7.13;4.50;;;16.10;99.90;;;;;;12437924;28;20053;-88
2021/09/17 19:28:12;;;;;;;8.15;5.55;;;16.00;99.90;;;;;;12418938;28;20054;-87
2021/09/17 19:34:13;;;;;;;6.00;4.45;;;15.90;99.90;;;;;;12434747;28;20057;-88
2021/09/17 19:40:15;;;;;;;7.50;3.92;;;15.90;99.90;;;;;;12429841;28;20965;-88
2021/09/17 19:46:17;;;;;;;7.72;4.32;;;15.90;99.90;;;;;;12441953;28;20054;-88
2021/09/17 19:52:19;;;;;;;7.00;4.85;;;15.80;99.90;;;;;;12434553;28;20053;-87
2021/09/17 19:58:21;;;;;;;7.32;5.10;;;15.70;99.90;;;;;;12419323;28;20128;-87
2021/09/17 20:04:23;;;;;;;8.25;5.00;;;15.60;99.90;;;;;;12424170;28;20510;-88
2021/09/17 20:10:25;;;;;;;10.40;4.93;;;15.60;99.90;;;;;;12414126;28;20140;-88
2021/09/17 20:16:26;;;;;;;7.65;5.80;;;15.50;99.90;;;;;;12436936;28;20054;-87
2021/09/17 20:22:31;;;;;;;14.57;5.85;;;15.40;99.90;;;;;;12429766;28;20038;-87
2021/09/17 20:28:33;;;;;;;9.00;6.10;;;15.20;99.90;;;;;;12423139;28;20057;-87
2021/09/17 20:34:45;;;;;;;9.95;6.43;;;15.30;99.90;;;;;;12428077;28;20064;-88
2021/09/17 20:40:47;;;;;;;11.82;5.80;;;15.20;99.90;;;;;;12409318;28;20148;-87
2021/09/17 20:46:49;;;;;;;7.53;5.18;;;15.20;99.90;;;;;;12431026;28;20546;-87
2021/09/17 20:52:51;;;;;;;8.65;6.00;;;15.10;99.90;;;;;;12444798;28;20061;-86
2021/09/17 20:58:54;;;;;;;8.48;5.30;;;15.00;99.90;;;;;;12422251;28;20141;-87
2021/09/17 21:04:56;;;;;;;9.80;5.20;;;15.00;99.90;;;;;;12437096;28;20105;-87
2021/09/17 21:10:58;;;;;;;12.27;4.90;;;14.90;99.90;;;;;;12433340;28;20075;-87
2021/09/17 21:17:00;;;;;;;6.63;4.90;;;14.90;99.90;;;;;;12427398;28;20052;-86
2021/09/17 21:23:02;;;;;;;8.50;5.15;;;14.90;99.90;;;;;;12430668;28;20073;-87
2021/09/17 21:29:04;;;;;;;12.07;4.97;;;14.70;99.90;;;;;;12421319;28;20470;-87
2021/09/17 21:35:06;;;;;;;6.18;4.45;;;14.70;99.90;;;;;;12415422;28;20849;-87
2021/09/17 21:41:09;;;;;;;8.13;4.63;;;14.70;99.90;;;;;;12440783;28;20103;-87
2021/09/17 21:47:11;;;;;;;5.75;4.40;;;14.70;99.90;;;;;;12438230;28;20581;-87
2021/09/17 21:53:14;;;;;;;9.98;4.18;;;14.60;99.90;;;;;;12458249;28;20042;-87
2021/09/17 21:59:16;;;;;;;11.50;5.57;;;14.50;99.90;;;;;;12443171;28;20088;-87
2021/09/17 22:05:18;;;;;;;8.20;5.05;;;14.40;99.90;;;;;;12436873;28;20042;-87
2021/09/17 22:11:20;;;;;;;7.03;4.72;;;14.30;99.90;;;;;;12430526;28;20111;-87
2021/09/17 22:17:22;;;;;;;12.00;4.30;;;14.40;99.90;;;;;;12434679;28;20045;-86
2021/09/17 22:23:23;;;;;;;8.38;5.05;;;14.30;99.90;;;;;;12428773;28;20054;-87
2021/09/17 22:29:25;;;;;;;7.55;4.78;;;14.30;99.90;;;;;;12417826;28;20057;-87
2021/09/17 22:35:27;;;;;;;6.50;4.13;;;14.20;99.90;;;;;;12424236;28;20129;-86
2021/09/17 22:41:29;;;;;;;5.53;3.88;;;14.30;99.90;;;;;;12430200;28;20050;-86
2021/09/17 22:47:31;;;;;;;7.32;4.55;;;14.30;99.90;;;;;;12415998;28;20546;-87
2021/09/17 22:53:33;;;;;;;6.35;4.13;;;14.20;99.90;;;;;;12427641;28;20042;-87
2021/09/17 22:59:35;;;;;;;8.57;3.60;;;14.10;99.90;;;;;;12431322;28;20133;-86
2021/09/17 23:05:37;;;;;;;6.50;3.67;;;14.00;99.90;;;;;;12409245;28;20096;-88
2021/09/17 23:11:39;;;;;;;11.40;3.17;;;14.00;99.90;;;;;;12412886;28;20067;-87
2021/09/17 23:17:42;;;;;;;6.43;3.33;;;13.90;99.90;;;;;;12434435;28;20073;-88
2021/09/17 23:23:44;;;;;;;5.75;2.50;;;13.90;99.90;;;;;;12427453;28;20088;-88
2021/09/17 23:29:46;;;;;;;5.95;2.40;;;13.90;99.90;;;;;;12421851;28;20054;-87
2021/09/17 23:35:48;;;;;;;6.82;2.97;;;13.80;99.90;;;;;;12436289;28;20153;-87
2021/09/17 23:41:49;;;;;;;4.07;2.50;;;13.90;99.90;;;;;;12428168;28;20057;-87
2021/09/17 23:47:54;;;;;;;7.28;2.22;;;13.90;99.90;;;;;;12415616;28;20049;-86
2021/09/17 23:53:55;;;;;;;4.13;2.00;;;13.90;99.90;;;;;;12427961;28;20049;-87
2021/09/17 23:59:57;;;;;;;5.88;1.75;;;13.90;99.90;;;;;;12434209;28;20049;-88
